createdAt,value
2023-05-07T00:01:50.686Z,-1.31
2023-05-07T00:06:53.503Z,-1.38
2023-05-07T00:11:56.100Z,-1.30
2023-05-07T00:16:59.033Z,-1.39
2023-05-07T00:22:01.912Z,-1.48
2023-05-07T00:27:04.681Z,-1.44
2023-05-07T00:32:07.619Z,-1.49
2023-05-07T00:37:10.527Z,-1.62
2023-05-07T00:42:13.218Z,-1.66
2023-05-07T00:47:16.159Z,-1.61
2023-05-07T00:52:22.197Z,-1.57
2023-05-07T00:57:26.596Z,-1.58
2023-05-07T01:02:29.378Z,-1.77
2023-05-07T01:07:33.279Z,-1.78
2023-05-07T01:12:39.168Z,-1.83
2023-05-07T01:17:43.765Z,-1.74
2023-05-07T01:22:56.116Z,-1.64
2023-05-07T01:28:01.130Z,-1.77
2023-05-07T01:33:12.464Z,-1.78
2023-05-07T01:38:15.712Z,-1.59
2023-05-07T01:43:18.716Z,-1.48
2023-05-07T01:48:22.292Z,-0.46
2023-05-07T01:53:25.028Z,2.25
2023-05-07T01:58:27.673Z,4.51
2023-05-07T02:03:30.716Z,6.52
2023-05-07T02:08:42.104Z,8.00
2023-05-07T02:13:46.695Z,9.23
2023-05-07T02:18:49.450Z,10.44
2023-05-07T02:23:52.424Z,11.83
2023-05-07T02:28:55.057Z,13.32
2023-05-07T02:33:58.214Z,15.00
2023-05-07T02:39:01.322Z,16.42
2023-05-07T02:44:04.942Z,17.72
2023-05-07T02:49:08.383Z,18.56
2023-05-07T02:54:11.443Z,16.96
2023-05-07T02:59:14.352Z,12.72
2023-05-07T03:04:18.708Z,9.79
2023-05-07T03:09:21.618Z,7.54
2023-05-07T03:14:24.475Z,6.80
2023-05-07T03:19:28.291Z,5.61
2023-05-07T03:24:31.124Z,5.11
2023-05-07T03:29:33.815Z,4.74
2023-05-07T03:34:36.407Z,4.86
2023-05-07T03:39:39.126Z,4.69
2023-05-07T03:44:41.852Z,4.26
2023-05-07T03:49:44.571Z,3.46
2023-05-07T03:54:49.610Z,3.56
2023-05-07T03:59:53.247Z,3.27
2023-05-07T04:04:56.227Z,2.85
2023-05-07T04:09:59.084Z,2.68
2023-05-07T04:15:01.848Z,2.87
2023-05-07T04:20:10.190Z,2.99
2023-05-07T04:25:13.638Z,3.16
2023-05-07T04:30:16.691Z,3.41
2023-05-07T04:35:19.698Z,3.05
2023-05-07T04:40:22.721Z,3.28
2023-05-07T04:45:25.404Z,3.29
2023-05-07T04:50:30.118Z,3.27
2023-05-07T04:55:36.410Z,3.83
2023-05-07T05:00:41.126Z,3.98
2023-05-07T05:05:44.486Z,3.73
2023-05-07T05:10:49.803Z,3.67
2023-05-07T05:15:52.730Z,3.75
2023-05-07T05:20:56.052Z,3.88
2023-05-07T05:25:59.272Z,4.47
2023-05-07T05:31:06.378Z,4.62
2023-05-07T05:36:13.189Z,4.93
2023-05-07T05:41:16.161Z,4.91
2023-05-07T05:46:18.873Z,5.16
2023-05-07T05:51:22.977Z,5.12
2023-05-07T05:56:26.929Z,5.64
2023-05-07T06:01:29.669Z,5.08
2023-05-07T06:06:35.266Z,5.11
2023-05-07T06:11:39.208Z,5.53
2023-05-07T06:16:43.165Z,5.77
2023-05-07T06:21:46.072Z,5.51
2023-05-07T06:26:49.546Z,5.23
2023-05-07T06:31:55.964Z,4.99
2023-05-07T06:36:59.991Z,5.33
2023-05-07T06:42:31.748Z,5.54
2023-05-07T06:47:48.605Z,5.19
2023-05-07T06:52:51.582Z,5.98
2023-05-07T06:57:54.251Z,6.67
2023-05-07T07:03:00.426Z,6.58
2023-05-07T07:08:04.810Z,6.52
2023-05-07T07:13:07.591Z,6.19
2023-05-07T07:18:11.006Z,6.92
2023-05-07T07:23:14.725Z,6.31
2023-05-07T07:28:18.941Z,6.69
2023-05-07T07:33:21.884Z,7.32
2023-05-07T07:38:24.734Z,7.03
2023-05-07T07:43:27.531Z,7.21
2023-05-07T07:48:32.025Z,7.41
2023-05-07T07:53:35.646Z,7.46
2023-05-07T07:58:39.037Z,7.25
2023-05-07T08:03:42.232Z,7.90
2023-05-07T08:08:45.530Z,7.95
2023-05-07T08:13:48.868Z,8.24
2023-05-07T08:18:51.819Z,8.13
2023-05-07T08:23:54.820Z,7.62
2023-05-07T08:28:57.726Z,7.99
2023-05-07T08:34:01.166Z,8.66
2023-05-07T08:39:04.077Z,9.55
2023-05-07T08:44:12.708Z,9.76
2023-05-07T08:49:17.021Z,8.14
2023-05-07T08:54:21.661Z,8.06
2023-05-07T08:59:24.739Z,8.09
2023-05-07T09:04:28.915Z,9.16
2023-05-07T09:09:34.709Z,9.42
2023-05-07T09:14:40.558Z,8.60
2023-05-07T09:19:48.435Z,8.13
2023-05-07T09:24:53.130Z,8.28
2023-05-07T09:29:59.697Z,7.87
2023-05-07T09:35:03.979Z,8.95
2023-05-07T09:40:08.660Z,8.68
2023-05-07T09:45:11.800Z,8.84
2023-05-07T09:50:19.539Z,9.12
2023-05-07T09:55:23.317Z,8.94
2023-05-07T10:00:28.776Z,8.51
2023-05-07T10:05:40.584Z,8.64
2023-05-07T10:10:43.758Z,9.22
2023-05-07T10:15:51.461Z,10.42
2023-05-07T10:20:58.968Z,10.03
2023-05-07T10:26:06.617Z,9.69
2023-05-07T10:31:21.896Z,10.22
2023-05-07T10:36:28.904Z,10.36
2023-05-07T10:41:31.869Z,11.12
2023-05-07T10:46:36.678Z,11.42
2023-05-07T10:52:18.692Z,10.38
2023-05-07T10:57:47.347Z,10.07
2023-05-07T11:03:02.657Z,9.84
2023-05-07T11:08:12.880Z,9.84
2023-05-07T11:13:48.644Z,9.57
2023-05-07T11:19:05.456Z,8.98
2023-05-07T11:24:26.203Z,9.25
2023-05-07T11:29:36.464Z,9.68
2023-05-07T11:34:48.757Z,9.77
2023-05-07T11:39:59.269Z,9.77
2023-05-07T11:45:02.665Z,9.61
2023-05-07T11:50:09.366Z,9.36
2023-05-07T11:55:12.196Z,8.76
2023-05-07T12:00:17.606Z,9.52
2023-05-07T12:05:20.394Z,10.72
2023-05-07T12:10:23.094Z,10.49
2023-05-07T12:15:25.791Z,10.99
2023-05-07T12:20:28.575Z,10.97
2023-05-07T12:25:43.169Z,10.10
2023-05-07T12:30:48.385Z,9.57
2023-05-07T12:35:51.753Z,9.59
2023-05-07T12:40:57.172Z,9.36
2023-05-07T12:46:08.002Z,9.11
2023-05-07T12:51:12.279Z,8.84
2023-05-07T12:56:17.128Z,8.92
2023-05-07T13:01:20.468Z,9.84
2023-05-07T13:06:23.165Z,9.88
2023-05-07T13:11:26.146Z,10.00
2023-05-07T13:16:28.881Z,9.97
2023-05-07T13:21:33.853Z,10.10
2023-05-07T13:26:36.643Z,10.39
2023-05-07T13:31:43.357Z,11.07
2023-05-07T13:36:46.093Z,10.28
2023-05-07T13:41:48.813Z,10.13
2023-05-07T13:46:51.451Z,10.10
2023-05-07T13:51:56.138Z,10.05
2023-05-07T13:56:58.782Z,10.22
2023-05-07T14:02:01.611Z,10.41
2023-05-07T14:07:04.554Z,10.63
2023-05-07T14:12:10.166Z,10.78
2023-05-07T14:17:12.958Z,10.70
2023-05-07T14:22:16.574Z,9.87
2023-05-07T14:27:19.305Z,9.97
2023-05-07T14:32:22.673Z,9.84
2023-05-07T14:37:25.526Z,9.99
2023-05-07T14:42:28.386Z,9.40
2023-05-07T14:47:31.046Z,9.27
2023-05-07T14:52:33.841Z,9.34
2023-05-07T14:57:36.875Z,8.88
2023-05-07T15:02:39.766Z,8.49
2023-05-07T15:07:42.479Z,8.44
2023-05-07T15:12:45.189Z,8.38
2023-05-07T15:17:47.900Z,7.96
2023-05-07T15:22:51.092Z,8.21
2023-05-07T15:27:53.808Z,8.41
2023-05-07T15:32:56.905Z,8.76
2023-05-07T15:38:00.061Z,8.61
2023-05-07T15:43:03.671Z,8.51
2023-05-07T15:48:06.545Z,8.27
2023-05-07T15:53:09.772Z,8.22
2023-05-07T15:58:12.424Z,7.88
2023-05-07T16:03:15.113Z,7.90
2023-05-07T16:08:17.880Z,8.04
2023-05-07T16:13:21.077Z,7.98
2023-05-07T16:18:23.935Z,7.97
2023-05-07T16:23:26.675Z,7.85
2023-05-07T16:28:29.293Z,7.84
2023-05-07T16:33:32.068Z,7.74
2023-05-07T16:38:34.953Z,7.62
2023-05-07T16:43:37.648Z,7.47
2023-05-07T16:48:40.633Z,7.17
2023-05-07T16:53:43.366Z,7.15
2023-05-07T16:58:46.048Z,6.88
2023-05-07T17:03:48.875Z,6.42
2023-05-07T17:08:51.785Z,6.48
2023-05-07T17:13:55.080Z,6.34
2023-05-07T17:18:57.842Z,6.25
2023-05-07T17:24:00.551Z,6.09
2023-05-07T17:29:03.803Z,6.00
2023-05-07T17:34:07.161Z,5.96
2023-05-07T17:39:09.872Z,5.83
2023-05-07T17:44:13.227Z,5.74
2023-05-07T17:49:16.725Z,5.55
2023-05-07T17:54:19.559Z,5.43
2023-05-07T17:59:22.373Z,5.24
2023-05-07T18:04:26.716Z,5.03
2023-05-07T18:09:29.410Z,4.87
2023-05-07T18:14:31.957Z,4.82
2023-05-07T18:19:34.613Z,4.39
2023-05-07T18:24:37.290Z,4.52
2023-05-07T18:29:40.267Z,4.34
2023-05-07T18:34:43.000Z,4.22
2023-05-07T18:39:46.306Z,3.92
2023-05-07T18:44:48.934Z,3.83
2023-05-07T18:49:51.583Z,3.79
2023-05-07T18:54:54.289Z,3.61
2023-05-07T18:59:57.012Z,3.38
2023-05-07T19:04:59.685Z,3.34
2023-05-07T19:10:05.531Z,3.09
2023-05-07T19:15:10.039Z,2.94
2023-05-07T19:20:13.191Z,2.77
2023-05-07T19:25:16.096Z,2.74
2023-05-07T19:30:18.951Z,2.62
2023-05-07T19:35:21.953Z,2.59
2023-05-07T19:40:24.589Z,2.65
2023-05-07T19:45:27.573Z,2.50
2023-05-07T19:50:30.356Z,2.29
2023-05-07T19:55:33.024Z,2.32
2023-05-07T20:00:35.917Z,2.40
2023-05-07T20:05:38.738Z,2.41
2023-05-07T20:10:41.591Z,2.31
2023-05-07T20:15:44.610Z,2.29
2023-05-07T20:20:47.951Z,2.23
2023-05-07T20:25:50.921Z,2.18
2023-05-07T20:30:54.001Z,1.99
2023-05-07T20:35:58.983Z,1.93
2023-05-07T20:41:08.996Z,1.81
2023-05-07T20:46:11.666Z,1.84
2023-05-07T20:51:15.950Z,1.74
2023-05-07T20:56:18.714Z,1.65
2023-05-07T21:01:21.417Z,1.55
2023-05-07T21:06:24.190Z,1.48
2023-05-07T21:11:26.794Z,1.35
2023-05-07T21:16:29.482Z,1.34
2023-05-07T21:21:32.370Z,1.25
2023-05-07T21:26:35.283Z,1.20
2023-05-07T21:31:38.042Z,1.23
2023-05-07T21:36:40.858Z,1.10
2023-05-07T21:41:43.613Z,0.86
2023-05-07T21:46:46.468Z,1.00
2023-05-07T21:51:49.127Z,0.85
2023-05-07T21:56:51.782Z,0.91
2023-05-07T22:01:54.427Z,0.81
2023-05-07T22:06:57.174Z,0.81
2023-05-07T22:12:00.039Z,0.74
2023-05-07T22:17:02.706Z,0.80
2023-05-07T22:22:05.479Z,0.53
2023-05-07T22:27:08.238Z,0.48
2023-05-07T22:32:12.752Z,0.51
2023-05-07T22:37:15.621Z,0.37
2023-05-07T22:42:18.282Z,0.43
2023-05-07T22:47:21.082Z,0.46
2023-05-07T22:52:23.785Z,0.59
2023-05-07T22:57:26.850Z,0.51
2023-05-07T23:02:29.616Z,0.49
2023-05-07T23:07:32.450Z,0.52
2023-05-07T23:12:35.867Z,0.57
2023-05-07T23:17:38.499Z,0.52
2023-05-07T23:22:41.317Z,0.44
2023-05-07T23:27:44.014Z,0.54
2023-05-07T23:32:46.763Z,0.41
2023-05-07T23:37:49.614Z,0.27
2023-05-07T23:42:52.236Z,0.23
2023-05-07T23:47:54.996Z,0.17
2023-05-07T23:52:57.793Z,0.18
2023-05-07T23:58:00.585Z,0.12
